sensor_id;sensor_type;location;lat;lon;timestamp;pressure;altitude;pressure_sealevel;temperature;humidity
55032;BME280;40928;51.076;7.950;2022-10-15T00:00:28;96310.44;;;12.17;100.00
55032;BME280;40928;51.076;7.950;2022-10-15T00:02:53;96306.16;;;12.16;100.00
55032;BME280;40928;51.076;7.950;2022-10-15T00:05:20;96302.94;;;12.14;100.00
55032;BME280;40928;51.076;7.950;2022-10-15T00:07:45;96303.75;;;12.14;100.00
55032;BME280;40928;51.076;7.950;2022-10-15T00:10:11;96301.84;;;12.15;100.00
55032;BME280;40928;51.076;7.950;2022-10-15T00:12:36;96302.69;;;12.15;100.00
55032;BME280;40928;51.076;7.950;2022-10-15T00:15:03;96298.94;;;12.16;100.00
55032;BME280;40928;51.076;7.950;2022-10-15T00:17:30;96300.78;;;12.16;100.00
55032;BME280;40928;51.076;7.950;2022-10-15T00:19:55;96296.00;;;12.13;100.00
55032;BME280;40928;51.076;7.950;2022-10-15T00:22:21;96297.06;;;12.12;100.00
55032;BME280;40928;51.076;7.950;2022-10-15T00:24:46;96306.69;;;12.13;100.00
55032;BME280;40928;51.076;7.950;2022-10-15T00:27:12;96306.94;;;12.11;100.00
55032;BME280;40928;51.076;7.950;2022-10-15T00:29:37;96300.00;;;12.10;100.00
55032;BME280;40928;51.076;7.950;2022-10-15T00:32:03;96293.56;;;12.11;100.00
55032;BME280;40928;51.076;7.950;2022-10-15T00:34:29;96291.97;;;12.10;100.00
55032;BME280;40928;51.076;7.950;2022-10-15T00:36:55;96293.03;;;12.09;100.00
55032;BME280;40928;51.076;7.950;2022-10-15T00:39:21;96295.69;;;12.09;100.00
55032;BME280;40928;51.076;7.950;2022-10-15T00:41:46;96293.84;;;12.10;100.00
55032;BME280;40928;51.076;7.950;2022-10-15T00:46:47;96291.16;;;12.10;100.00
55032;BME280;40928;51.076;7.950;2022-10-15T00:49:38;96288.22;;;12.06;100.00
55032;BME280;40928;51.076;7.950;2022-10-15T00:52:23;96287.94;;;12.02;100.00
55032;BME280;40928;51.076;7.950;2022-10-15T00:55:02;96279.38;;;12.00;100.00
55032;BME280;40928;51.076;7.950;2022-10-15T00:57:31;96279.91;;;11.97;100.00
55032;BME280;40928;51.076;7.950;2022-10-15T01:00:01;96281.75;;;11.97;100.00
55032;BME280;40928;51.076;7.950;2022-10-15T01:02:28;96282.56;;;11.97;100.00
55032;BME280;40928;51.076;7.950;2022-10-15T01:04:53;96282.56;;;11.97;100.00
55032;BME280;40928;51.076;7.950;2022-10-15T01:07:20;96285.78;;;11.99;100.00
55032;BME280;40928;51.076;7.950;2022-10-15T01:09:45;96290.88;;;12.01;100.00
55032;BME280;40928;51.076;7.950;2022-10-15T01:12:27;96280.97;;;11.96;100.00
55032;BME280;40928;51.076;7.950;2022-10-15T01:15:06;96275.59;;;11.96;100.00
55032;BME280;40928;51.076;7.950;2022-10-15T01:18:07;96275.59;;;11.91;100.00
55032;BME280;40928;51.076;7.950;2022-10-15T01:20:50;96273.72;;;11.92;100.00
55032;BME280;40928;51.076;7.950;2022-10-15T01:23:55;96271.84;;;11.92;100.00
55032;BME280;40928;51.076;7.950;2022-10-15T01:29:31;96269.19;;;11.92;100.00
55032;BME280;40928;51.076;7.950;2022-10-15T01:32:24;96261.94;;;11.93;100.00
55032;BME280;40928;51.076;7.950;2022-10-15T01:40:35;96252.03;;;11.88;100.00
55032;BME280;40928;51.076;7.950;2022-10-15T01:43:03;96256.59;;;11.87;100.00
55032;BME280;40928;51.076;7.950;2022-10-15T01:45:53;96253.09;;;11.87;100.00
55032;BME280;40928;51.076;7.950;2022-10-15T01:48:39;96254.19;;;11.86;100.00
55032;BME280;40928;51.076;7.950;2022-10-15T01:51:06;96255.25;;;11.85;100.00
55032;BME280;40928;51.076;7.950;2022-10-15T01:53:35;96255.25;;;11.85;100.00
55032;BME280;40928;51.076;7.950;2022-10-15T01:56:08;96258.19;;;11.83;100.00
55032;BME280;40928;51.076;7.950;2022-10-15T01:58:41;96256.31;;;11.84;100.00
55032;BME280;40928;51.076;7.950;2022-10-15T02:01:08;96256.31;;;11.84;100.00
55032;BME280;40928;51.076;7.950;2022-10-15T02:03:49;96261.66;;;11.84;100.00
55032;BME280;40928;51.076;7.950;2022-10-15T02:06:29;96259.25;;;11.82;100.00
55032;BME280;40928;51.076;7.950;2022-10-15T02:09:00;96250.44;;;11.82;100.00
55032;BME280;40928;51.076;7.950;2022-10-15T02:11:39;96256.31;;;11.84;100.00
55032;BME280;40928;51.076;7.950;2022-10-15T02:17:14;96253.66;;;11.79;100.00
55032;BME280;40928;51.076;7.950;2022-10-15T02:22:47;96250.72;;;11.75;100.00
55032;BME280;40928;51.076;7.950;2022-10-15T02:25:21;96249.06;;;11.69;100.00
55032;BME280;40928;51.076;7.950;2022-10-15T02:27:49;96242.41;;;11.66;100.00
55032;BME280;40928;51.076;7.950;2022-10-15T02:30:16;96234.09;;;11.63;100.00
55032;BME280;40928;51.076;7.950;2022-10-15T02:32:46;96231.69;;;11.61;100.00
55032;BME280;40928;51.076;7.950;2022-10-15T02:35:13;96233.81;;;11.59;100.00
55032;BME280;40928;51.076;7.950;2022-10-15T02:37:44;96239.97;;;11.60;100.00
55032;BME280;40928;51.076;7.950;2022-10-15T02:40:15;96252.00;;;11.57;100.00
55032;BME280;40928;51.076;7.950;2022-10-15T02:42:41;96247.47;;;11.57;100.00
55032;BME280;40928;51.076;7.950;2022-10-15T02:45:07;96245.56;;;11.58;100.00
55032;BME280;40928;51.076;7.950;2022-10-15T02:47:33;96238.38;;;11.58;100.00
55032;BME280;40928;51.076;7.950;2022-10-15T02:50:02;96241.56;;;11.61;100.00
55032;BME280;40928;51.076;7.950;2022-10-15T02:52:28;96243.72;;;11.58;100.00
55032;BME280;40928;51.076;7.950;2022-10-15T02:54:53;96246.38;;;11.53;100.00
55032;BME280;40928;51.076;7.950;2022-10-15T02:57:20;96248.22;;;11.53;100.00
55032;BME280;40928;51.076;7.950;2022-10-15T02:59:46;96246.91;;;11.55;100.00
55032;BME280;40928;51.076;7.950;2022-10-15T03:02:11;96256.28;;;11.58;100.00
55032;BME280;40928;51.076;7.950;2022-10-15T03:04:37;96256.28;;;11.58;100.00
55032;BME280;40928;51.076;7.950;2022-10-15T03:07:04;96269.63;;;11.58;100.00
55032;BME280;40928;51.076;7.950;2022-10-15T03:09:30;96262.16;;;11.60;100.00
55032;BME280;40928;51.076;7.950;2022-10-15T03:11:55;96268.03;;;11.57;100.00
55032;BME280;40928;51.076;7.950;2022-10-15T03:14:21;96277.66;;;11.58;100.00
55032;BME280;40928;51.076;7.950;2022-10-15T03:16:46;96272.59;;;11.56;100.00
55032;BME280;40928;51.076;7.950;2022-10-15T03:19:12;96268.56;;;11.54;100.00
55032;BME280;40928;51.076;7.950;2022-10-15T03:21:38;96267.75;;;11.53;100.00
55032;BME280;40928;51.076;7.950;2022-10-15T03:24:09;96268.31;;;11.55;100.00
55032;BME280;40928;51.076;7.950;2022-10-15T03:26:38;96266.44;;;11.56;100.00
55032;BME280;40928;51.076;7.950;2022-10-15T03:29:03;96265.34;;;11.57;100.00
55032;BME280;40928;51.076;7.950;2022-10-15T03:31:34;96271.53;;;11.57;100.00
55032;BME280;40928;51.076;7.950;2022-10-15T03:34:01;96282.22;;;11.57;100.00
55032;BME280;40928;51.076;7.950;2022-10-15T03:36:28;96279.53;;;11.57;100.00
55032;BME280;40928;51.076;7.950;2022-10-15T03:38:54;96273.38;;;11.57;100.00
55032;BME280;40928;51.076;7.950;2022-10-15T03:41:19;96270.72;;;11.57;100.00
55032;BME280;40928;51.076;7.950;2022-10-15T03:43:46;96269.38;;;11.54;100.00
55032;BME280;40928;51.076;7.950;2022-10-15T03:46:13;96263.22;;;11.54;100.00
55032;BME280;40928;51.076;7.950;2022-10-15T03:48:42;96257.84;;;11.54;100.00
55032;BME280;40928;51.076;7.950;2022-10-15T03:51:10;96261.59;;;11.53;100.00
55032;BME280;40928;51.076;7.950;2022-10-15T03:53:36;96245.84;;;11.51;100.00
55032;BME280;40928;51.076;7.950;2022-10-15T03:56:03;96254.66;;;11.47;100.00
55032;BME280;40928;51.076;7.950;2022-10-15T03:58:29;96254.13;;;11.50;100.00
55032;BME280;40928;51.076;7.950;2022-10-15T04:00:58;96255.19;;;11.49;100.00
55032;BME280;40928;51.076;7.950;2022-10-15T04:03:23;96246.91;;;11.50;100.00
55032;BME280;40928;51.076;7.950;2022-10-15T04:05:50;96248.78;;;11.50;100.00
55032;BME280;40928;51.076;7.950;2022-10-15T04:08:17;96255.97;;;11.49;100.00
55032;BME280;40928;51.076;7.950;2022-10-15T04:10:42;96246.91;;;11.50;100.00
55032;BME280;40928;51.076;7.950;2022-10-15T04:13:08;96242.38;;;11.51;100.00
55032;BME280;40928;51.076;7.950;2022-10-15T04:15:38;96249.03;;;11.53;100.00
55032;BME280;40928;51.076;7.950;2022-10-15T04:18:07;96253.34;;;11.54;100.00
55032;BME280;40928;51.076;7.950;2022-10-15T04:20:32;96241.81;;;11.54;100.00
55032;BME280;40928;51.076;7.950;2022-10-15T04:23:09;96245.03;;;11.56;100.00
55032;BME280;40928;51.076;7.950;2022-10-15T04:25:37;96253.34;;;11.54;100.00
55032;BME280;40928;51.076;7.950;2022-10-15T04:28:02;96246.91;;;11.55;100.00
55032;BME280;40928;51.076;7.950;2022-10-15T04:30:30;96252.25;;;11.55;100.00
55032;BME280;40928;51.076;7.950;2022-10-15T04:32:58;96267.25;;;11.56;100.00
55032;BME280;40928;51.076;7.950;2022-10-15T04:35:24;96265.34;;;11.57;100.00
55032;BME280;40928;51.076;7.950;2022-10-15T04:37:57;96265.13;;;11.58;100.00
55032;BME280;40928;51.076;7.950;2022-10-15T04:40:24;96274.75;;;11.60;100.00
55032;BME280;40928;51.076;7.950;2022-10-15T04:42:49;96270.97;;;11.61;100.00
55032;BME280;40928;51.076;7.950;2022-10-15T04:45:16;96275.00;;;11.58;100.00
55032;BME280;40928;51.076;7.950;2022-10-15T04:47:42;96264.81;;;11.55;100.00
55032;BME280;40928;51.076;7.950;2022-10-15T04:50:11;96266.16;;;11.52;100.00
55032;BME280;40928;51.076;7.950;2022-10-15T04:52:55;96265.38;;;11.52;100.00
55032;BME280;40928;51.076;7.950;2022-10-15T04:55:23;96276.06;;;11.52;100.00
55032;BME280;40928;51.076;7.950;2022-10-15T04:57:53;96277.38;;;11.49;100.00
55032;BME280;40928;51.076;7.950;2022-10-15T05:00:24;96273.63;;;11.50;100.00
55032;BME280;40928;51.076;7.950;2022-10-15T05:02:56;96271.78;;;11.51;100.00
55032;BME280;40928;51.076;7.950;2022-10-15T05:05:32;96270.97;;;11.50;100.00
55032;BME280;40928;51.076;7.950;2022-10-15T05:08:02;96274.44;;;11.51;100.00
55032;BME280;40928;51.076;7.950;2022-10-15T05:10:31;96270.44;;;11.53;100.00
55032;BME280;40928;51.076;7.950;2022-10-15T05:13:01;96270.97;;;11.55;100.00
55032;BME280;40928;51.076;7.950;2022-10-15T05:15:31;96267.50;;;11.55;100.00
55032;BME280;40928;51.076;7.950;2022-10-15T05:17:56;96267.50;;;11.55;100.00
55032;BME280;40928;51.076;7.950;2022-10-15T05:20:28;96270.97;;;11.55;100.00
55032;BME280;40928;51.076;7.950;2022-10-15T05:22:54;96265.63;;;11.55;100.00
55032;BME280;40928;51.076;7.950;2022-10-15T05:25:22;96252.00;;;11.57;100.00
55032;BME280;40928;51.076;7.950;2022-10-15T05:27:47;96252.00;;;11.57;100.00
55032;BME280;40928;51.076;7.950;2022-10-15T05:30:13;96254.66;;;11.57;100.00
55032;BME280;40928;51.076;7.950;2022-10-15T05:32:45;96254.66;;;11.57;100.00
55032;BME280;40928;51.076;7.950;2022-10-15T05:35:16;96255.72;;;11.56;100.00
55032;BME280;40928;51.076;7.950;2022-10-15T05:37:58;96266.44;;;11.56;100.00
55032;BME280;40928;51.076;7.950;2022-10-15T05:40:23;96265.34;;;11.57;100.00
55032;BME280;40928;51.076;7.950;2022-10-15T05:43:04;96269.38;;;11.54;100.00
55032;BME280;40928;51.076;7.950;2022-10-15T05:45:30;96269.91;;;11.51;100.00
55032;BME280;40928;51.076;7.950;2022-10-15T05:48:01;96278.72;;;11.52;100.00
55032;BME280;40928;51.076;7.950;2022-10-15T05:50:27;96291.00;;;11.53;100.00
55032;BME280;40928;51.076;7.950;2022-10-15T05:52:55;96285.16;;;11.51;100.00
55032;BME280;40928;51.076;7.950;2022-10-15T05:55:40;96293.16;;;11.51;100.00
55032;BME280;40928;51.076;7.950;2022-10-15T05:58:06;96303.59;;;11.52;100.00
55032;BME280;40928;51.076;7.950;2022-10-15T06:00:33;96305.47;;;11.52;100.00
55032;BME280;40928;51.076;7.950;2022-10-15T06:02:59;96304.66;;;11.51;100.00
55032;BME280;40928;51.076;7.950;2022-10-15T06:05:24;96308.94;;;11.52;100.00
55032;BME280;40928;51.076;7.950;2022-10-15T06:07:50;96306.53;;;11.51;100.00
55032;BME280;40928;51.076;7.950;2022-10-15T06:10:15;96315.88;;;11.48;100.00
55032;BME280;40928;51.076;7.950;2022-10-15T06:12:41;96310.53;;;11.53;100.00
55032;BME280;40928;51.076;7.950;2022-10-15T06:15:08;96310.53;;;11.53;100.00
55032;BME280;40928;51.076;7.950;2022-10-15T06:17:34;96316.69;;;11.49;100.00
55032;BME280;40928;51.076;7.950;2022-10-15T06:20:00;96312.69;;;11.62;100.00
55032;BME280;40928;51.076;7.950;2022-10-15T06:22:25;96312.16;;;11.54;100.00
55032;BME280;40928;51.076;7.950;2022-10-15T06:24:54;96316.69;;;11.54;100.00
55032;BME280;40928;51.076;7.950;2022-10-15T06:27:21;96313.50;;;11.52;100.00
55032;BME280;40928;51.076;7.950;2022-10-15T06:29:47;96324.19;;;11.52;100.00
55032;BME280;40928;51.076;7.950;2022-10-15T06:32:12;96326.59;;;11.53;100.00
55032;BME280;40928;51.076;7.950;2022-10-15T06:34:41;96331.94;;;11.53;100.00
55032;BME280;40928;51.076;7.950;2022-10-15T06:37:07;96323.09;;;11.53;100.00
55032;BME280;40928;51.076;7.950;2022-10-15T06:39:32;96318.56;;;11.53;100.00
55032;BME280;40928;51.076;7.950;2022-10-15T06:41:58;96313.50;;;11.52;100.00
55032;BME280;40928;51.076;7.950;2022-10-15T06:44:36;96323.13;;;11.58;100.00
55032;BME280;40928;51.076;7.950;2022-10-15T06:47:02;96319.66;;;11.57;100.00
55032;BME280;40928;51.076;7.950;2022-10-15T06:49:27;96322.09;;;11.64;100.00
55032;BME280;40928;51.076;7.950;2022-10-15T06:51:53;96327.69;;;11.63;100.00
55032;BME280;40928;51.076;7.950;2022-10-15T06:54:18;96325.78;;;11.58;100.00
55032;BME280;40928;51.076;7.950;2022-10-15T06:56:44;96325.81;;;11.63;100.00
55032;BME280;40928;51.076;7.950;2022-10-15T06:59:09;96320.72;;;11.62;100.00
55032;BME280;40928;51.076;7.950;2022-10-15T07:01:35;96323.41;;;11.67;100.00
55032;BME280;40928;51.076;7.950;2022-10-15T07:04:01;96323.44;;;11.72;100.00
55032;BME280;40928;51.076;7.950;2022-10-15T07:06:27;96322.91;;;11.75;100.00
55032;BME280;40928;51.076;7.950;2022-10-15T07:08:52;96328.53;;;11.84;100.00
55032;BME280;40928;51.076;7.950;2022-10-15T07:11:18;96327.75;;;11.94;100.00
55032;BME280;40928;51.076;7.950;2022-10-15T07:13:43;96323.25;;;11.99;100.00
55032;BME280;40928;51.076;7.950;2022-10-15T07:16:10;96321.66;;;12.09;100.00
55032;BME280;40928;51.076;7.950;2022-10-15T07:18:37;96324.63;;;12.17;100.00
55032;BME280;40928;51.076;7.950;2022-10-15T07:21:04;96330.78;;;12.23;100.00
55032;BME280;40928;51.076;7.950;2022-10-15T07:23:30;96338.03;;;12.33;100.00
55032;BME280;40928;51.076;7.950;2022-10-15T07:25:57;96335.63;;;12.42;100.00
55032;BME280;40928;51.076;7.950;2022-10-15T07:28:23;96346.88;;;12.54;100.00
55032;BME280;40928;51.076;7.950;2022-10-15T07:30:48;96350.63;;;12.58;100.00
55032;BME280;40928;51.076;7.950;2022-10-15T07:33:14;96361.03;;;12.55;100.00
55032;BME280;40928;51.076;7.950;2022-10-15T07:35:46;96363.72;;;12.55;100.00
55032;BME280;40928;51.076;7.950;2022-10-15T07:38:15;96355.41;;;12.46;100.00
55032;BME280;40928;51.076;7.950;2022-10-15T07:40:42;96359.69;;;12.31;100.00
55032;BME280;40928;51.076;7.950;2022-10-15T07:43:08;96355.69;;;12.29;100.00
55032;BME280;40928;51.076;7.950;2022-10-15T07:45:35;96354.34;;;12.31;100.00
55032;BME280;40928;51.076;7.950;2022-10-15T07:48:01;96357.56;;;12.39;100.00
55032;BME280;40928;51.076;7.950;2022-10-15T07:50:26;96357.03;;;12.42;100.00
55032;BME280;40928;51.076;7.950;2022-10-15T07:52:54;96365.34;;;12.45;100.00
55032;BME280;40928;51.076;7.950;2022-10-15T07:55:20;96365.06;;;12.47;100.00
55032;BME280;40928;51.076;7.950;2022-10-15T07:57:45;96360.78;;;12.46;100.00
55032;BME280;40928;51.076;7.950;2022-10-15T08:00:11;96357.84;;;12.53;100.00
55032;BME280;40928;51.076;7.950;2022-10-15T08:02:41;96355.16;;;12.58;100.00
55032;BME280;40928;51.076;7.950;2022-10-15T08:05:12;96359.44;;;12.64;100.00
55032;BME280;40928;51.076;7.950;2022-10-15T08:07:38;96355.19;;;12.68;100.00
55032;BME280;40928;51.076;7.950;2022-10-15T08:10:09;96361.59;;;12.72;100.00
55032;BME280;40928;51.076;7.950;2022-10-15T08:12:38;96361.31;;;12.69;100.00
55032;BME280;40928;51.076;7.950;2022-10-15T08:15:04;96367.50;;;12.64;100.00
55032;BME280;40928;51.076;7.950;2022-10-15T08:17:30;96364.81;;;12.59;100.00
55032;BME280;40928;51.076;7.950;2022-10-15T08:19:56;96354.91;;;12.59;100.00
55032;BME280;40928;51.076;7.950;2022-10-15T08:22:22;96359.69;;;12.62;100.00
55032;BME280;40928;51.076;7.950;2022-10-15T08:24:47;96358.38;;;12.70;100.00
55032;BME280;40928;51.076;7.950;2022-10-15T08:27:13;96356.25;;;12.62;100.00
55032;BME280;40928;51.076;7.950;2022-10-15T08:29:39;96351.41;;;12.54;100.00
55032;BME280;40928;51.076;7.950;2022-10-15T08:32:05;96352.75;;;12.51;100.00
55032;BME280;40928;51.076;7.950;2022-10-15T08:34:30;96350.09;;;12.56;100.00
55032;BME280;40928;51.076;7.950;2022-10-15T08:36:56;96354.88;;;12.64;100.00
55032;BME280;40928;51.076;7.950;2022-10-15T08:39:21;96359.72;;;12.68;100.00
55032;BME280;40928;51.076;7.950;2022-10-15T08:41:56;96355.94;;;12.79;100.00
55032;BME280;40928;51.076;7.950;2022-10-15T08:44:26;96354.59;;;12.87;100.00
55032;BME280;40928;51.076;7.950;2022-10-15T08:47:07;96350.81;;;13.03;100.00
55032;BME280;40928;51.076;7.950;2022-10-15T08:49:45;96344.59;;;13.34;100.00
55032;BME280;40928;51.076;7.950;2022-10-15T08:52:42;96348.81;;;13.61;100.00
55032;BME280;40928;51.076;7.950;2022-10-15T08:55:11;96351.25;;;13.52;100.00
55032;BME280;40928;51.076;7.950;2022-10-15T08:57:42;96348.63;;;13.42;100.00
55032;BME280;40928;51.076;7.950;2022-10-15T09:00:20;96334.41;;;13.41;100.00
55032;BME280;40928;51.076;7.950;2022-10-15T09:03:17;96335.47;;;13.45;100.00
55032;BME280;40928;51.076;7.950;2022-10-15T09:05:58;96331.16;;;13.49;100.00
55032;BME280;40928;51.076;7.950;2022-10-15T09:13:42;96339.75;;;13.41;100.00
55032;BME280;40928;51.076;7.950;2022-10-15T09:16:18;96342.47;;;13.31;100.00
55032;BME280;40928;51.076;7.950;2022-10-15T09:18:45;96339.75;;;13.41;100.00
55032;BME280;40928;51.076;7.950;2022-10-15T09:21:12;96339.38;;;13.74;100.00
55032;BME280;40928;51.076;7.950;2022-10-15T09:23:38;96338.91;;;14.06;100.00
55032;BME280;40928;51.076;7.950;2022-10-15T09:26:37;96339.97;;;14.50;100.00
55032;BME280;40928;51.076;7.950;2022-10-15T09:34:28;96339.72;;;15.11;100.00
55032;BME280;40928;51.076;7.950;2022-10-15T09:37:05;96340.19;;;15.42;100.00
55032;BME280;40928;51.076;7.950;2022-10-15T09:42:30;96344.88;;;15.31;100.00
55032;BME280;40928;51.076;7.950;2022-10-15T09:45:02;96339.97;;;15.14;100.00
55032;BME280;40928;51.076;7.950;2022-10-15T09:47:32;96349.72;;;14.75;100.00
55032;BME280;40928;51.076;7.950;2022-10-15T09:49:58;96345.78;;;14.62;100.00
55032;BME280;40928;51.076;7.950;2022-10-15T09:57:35;96343.81;;;14.39;100.00
55032;BME280;40928;51.076;7.950;2022-10-15T10:00:07;96343.09;;;14.28;100.00
55032;BME280;40928;51.076;7.950;2022-10-15T10:02:41;96341.47;;;14.27;100.00
55032;BME280;40928;51.076;7.950;2022-10-15T10:05:29;96335.06;;;14.23;100.00
55032;BME280;40928;51.076;7.950;2022-10-15T10:08:07;96337.47;;;14.24;100.00
55032;BME280;40928;51.076;7.950;2022-10-15T10:10:35;96342.78;;;14.29;100.00
55032;BME280;40928;51.076;7.950;2022-10-15T10:13:01;96333.19;;;14.23;100.00
55032;BME280;40928;51.076;7.950;2022-10-15T10:15:39;96343.09;;;14.28;100.00
55032;BME280;40928;51.076;7.950;2022-10-15T10:18:17;96346.00;;;14.31;100.00
55032;BME280;40928;51.076;7.950;2022-10-15T10:20:52;96348.47;;;14.28;100.00
55032;BME280;40928;51.076;7.950;2022-10-15T10:23:21;96343.09;;;14.23;100.00
55032;BME280;40928;51.076;7.950;2022-10-15T10:25:47;96345.66;;;14.04;100.00
55032;BME280;40928;51.076;7.950;2022-10-15T10:28:18;96338.38;;;14.09;100.00
55032;BME280;40928;51.076;7.950;2022-10-15T10:31:09;96344.81;;;14.08;100.00
55032;BME280;40928;51.076;7.950;2022-10-15T10:36:05;96346.72;;;14.08;100.00
55032;BME280;40928;51.076;7.950;2022-10-15T10:38:33;96338.13;;;14.06;100.00
55032;BME280;40928;51.076;7.950;2022-10-15T10:41:03;96333.00;;;14.09;100.00
55032;BME280;40928;51.076;7.950;2022-10-15T10:43:35;96326.56;;;14.05;100.00
55032;BME280;40928;51.076;7.950;2022-10-15T10:46:05;96329.25;;;14.10;100.00
55032;BME280;40928;51.076;7.950;2022-10-15T10:51:16;96328.94;;;14.12;100.00
55032;BME280;40928;51.076;7.950;2022-10-15T10:54:01;96327.09;;;14.12;100.00
55032;BME280;40928;51.076;7.950;2022-10-15T10:56:41;96323.03;;;14.15;100.00
55032;BME280;40928;51.076;7.950;2022-10-15T10:59:15;96328.94;;;14.12;100.00
55032;BME280;40928;51.076;7.950;2022-10-15T11:01:42;96329.47;;;14.14;100.00
55032;BME280;40928;51.076;7.950;2022-10-15T11:04:13;96329.72;;;14.18;100.00
55032;BME280;40928;51.076;7.950;2022-10-15T11:07:54;96321.94;;;14.16;100.00
55032;BME280;40928;51.076;7.950;2022-10-15T11:10:20;96325.16;;;14.18;100.00
55032;BME280;40928;51.076;7.950;2022-10-15T11:23:19;96311.97;;;14.22;100.00
55032;BME280;40928;51.076;7.950;2022-10-15T11:32:01;96302.38;;;14.10;100.00
55032;BME280;40928;51.076;7.950;2022-10-15T11:37:50;96302.16;;;14.07;100.00
55032;BME280;40928;51.076;7.950;2022-10-15T11:43:06;96304.53;;;14.13;100.00
55032;BME280;40928;51.076;7.950;2022-10-15T11:48:20;96300.81;;;14.04;100.00
55032;BME280;40928;51.076;7.950;2022-10-15T11:53:51;96291.13;;;14.08;100.00
55032;BME280;40928;51.076;7.950;2022-10-15T11:56:25;96284.91;;;14.13;100.00
55032;BME280;40928;51.076;7.950;2022-10-15T11:59:31;96285.44;;;14.15;100.00
55032;BME280;40928;51.076;7.950;2022-10-15T12:02:08;96281.09;;;14.24;100.00
55032;BME280;40928;51.076;7.950;2022-10-15T12:04:54;96280.25;;;14.29;100.00
55032;BME280;40928;51.076;7.950;2022-10-15T12:07:26;96282.59;;;14.36;100.00
55032;BME280;40928;51.076;7.950;2022-10-15T12:12:52;96281.25;;;14.33;100.00
55032;BME280;40928;51.076;7.950;2022-10-15T12:18:27;96280.03;;;14.20;100.00
55032;BME280;40928;51.076;7.950;2022-10-15T12:20:55;96270.16;;;14.15;100.00
55032;BME280;40928;51.076;7.950;2022-10-15T12:23:38;96278.97;;;14.21;100.00
55032;BME280;40928;51.076;7.950;2022-10-15T12:26:29;96282.97;;;14.24;100.00
55032;BME280;40928;51.076;7.950;2022-10-15T12:29:01;96270.84;;;14.26;100.00
55032;BME280;40928;51.076;7.950;2022-10-15T12:31:54;96266.50;;;14.36;100.00
55032;BME280;40928;51.076;7.950;2022-10-15T12:34:42;96256.59;;;14.31;100.00
55032;BME280;40928;51.076;7.950;2022-10-15T12:37:17;96252.53;;;14.34;100.00
55032;BME280;40928;51.076;7.950;2022-10-15T12:39:44;96249.53;;;14.40;100.00
55032;BME280;40928;51.076;7.950;2022-10-15T12:44:49;96249.41;;;14.51;100.00
55032;BME280;40928;51.076;7.950;2022-10-15T12:47:48;96250.16;;;14.56;100.00
55032;BME280;40928;51.076;7.950;2022-10-15T12:50:26;96247.34;;;14.72;100.00
55032;BME280;40928;51.076;7.950;2022-10-15T12:58:58;96245.50;;;14.72;100.00
55032;BME280;40928;51.076;7.950;2022-10-15T13:01:51;96248.97;;;14.73;100.00
55032;BME280;40928;51.076;7.950;2022-10-15T13:07:38;96242.88;;;14.62;100.00
55032;BME280;40928;51.076;7.950;2022-10-15T13:10:19;96241.75;;;14.68;100.00
55032;BME280;40928;51.076;7.950;2022-10-15T13:12:51;96250.44;;;14.60;100.00
55032;BME280;40928;51.076;7.950;2022-10-15T13:15:24;96243.72;;;14.57;100.00
55032;BME280;40928;51.076;7.950;2022-10-15T13:17:52;96251.00;;;14.57;100.00
55032;BME280;40928;51.076;7.950;2022-10-15T13:23:23;96257.16;;;14.57;100.00
55032;BME280;40928;51.076;7.950;2022-10-15T13:25:51;96251.28;;;14.55;100.00
55032;BME280;40928;51.076;7.950;2022-10-15T13:28:37;96248.81;;;14.59;100.00
55032;BME280;40928;51.076;7.950;2022-10-15T13:31:34;96249.09;;;14.57;100.00
55032;BME280;40928;51.076;7.950;2022-10-15T13:34:15;96248.00;;;14.58;100.00
55032;BME280;40928;51.076;7.950;2022-10-15T13:36:46;96243.72;;;14.57;100.00
55032;BME280;40928;51.076;7.950;2022-10-15T13:39:38;96233.81;;;14.53;100.00
55032;BME280;40928;51.076;7.950;2022-10-15T13:42:16;96245.63;;;14.57;100.00
55032;BME280;40928;51.076;7.950;2022-10-15T13:44:43;96243.66;;;14.62;100.00
55032;BME280;40928;51.076;7.950;2022-10-15T13:47:35;96250.66;;;14.64;100.00
55032;BME280;40928;51.076;7.950;2022-10-15T13:52:55;96253.31;;;14.69;100.00
55032;BME280;40928;51.076;7.950;2022-10-15T13:55:27;96256.19;;;14.77;100.00
55032;BME280;40928;51.076;7.950;2022-10-15T14:00:40;96243.25;;;14.80;100.00
55032;BME280;40928;51.076;7.950;2022-10-15T14:05:40;96255.56;;;14.86;100.00
55032;BME280;40928;51.076;7.950;2022-10-15T14:08:18;96251.28;;;14.85;100.00
55032;BME280;40928;51.076;7.950;2022-10-15T14:10:44;96256.38;;;14.86;100.00
55032;BME280;40928;51.076;7.950;2022-10-15T14:13:11;96248.88;;;14.83;100.00
55032;BME280;40928;51.076;7.950;2022-10-15T14:15:52;96243.50;;;14.83;100.00
55032;BME280;40928;51.076;7.950;2022-10-15T14:18:29;96245.38;;;14.83;100.00
55032;BME280;40928;51.076;7.950;2022-10-15T14:20:55;96248.75;;;14.94;100.00
55032;BME280;40928;51.076;7.950;2022-10-15T14:23:23;96253.09;;;14.89;100.00
55032;BME280;40928;51.076;7.950;2022-10-15T14:26:00;96251.44;;;14.94;100.00
55032;BME280;40928;51.076;7.950;2022-10-15T14:28:28;96254.78;;;14.85;100.00
55032;BME280;40928;51.076;7.950;2022-10-15T14:30:55;96256.53;;;14.95;100.00
55032;BME280;40928;51.076;7.950;2022-10-15T14:33:47;96254.00;;;15.04;100.00
55032;BME280;40928;51.076;7.950;2022-10-15T14:36:40;96247.84;;;15.03;100.00
55032;BME280;40928;51.076;7.950;2022-10-15T14:39:30;96254.00;;;15.04;100.00
55032;BME280;40928;51.076;7.950;2022-10-15T14:42:02;96245.09;;;15.09;100.00
55032;BME280;40928;51.076;7.950;2022-10-15T14:44:47;96242.91;;;15.11;100.00
55032;BME280;40928;51.076;7.950;2022-10-15T14:47:35;96242.34;;;15.14;100.00
55032;BME280;40928;51.076;7.950;2022-10-15T14:50:00;96247.50;;;15.10;100.00